sensor_id;sensor_type;location;lat;lon;timestamp;pressure;altitude;pressure_sealevel;temperature;humidity
17230;BME280;8731;50.364;8.958;2023-01-30T00:03:55;100674.97;;;0.61;85.61
17230;BME280;8731;50.364;8.958;2023-01-30T00:08:18;100678.50;;;0.69;86.35
17230;BME280;8731;50.364;8.958;2023-01-30T00:12:42;100651.84;;;0.70;86.82
17230;BME280;8731;50.364;8.958;2023-01-30T00:17:05;100636.41;;;0.67;86.55
17230;BME280;8731;50.364;8.958;2023-01-30T00:21:27;100631.19;;;0.65;87.68
17230;BME280;8731;50.364;8.958;2023-01-30T00:25:49;100611.06;;;0.71;87.16
17230;BME280;8731;50.364;8.958;2023-01-30T00:30:14;100602.59;;;0.76;87.32
17230;BME280;8731;50.364;8.958;2023-01-30T00:34:37;100600.63;;;0.68;86.79
17230;BME280;8731;50.364;8.958;2023-01-30T00:38:59;100598.28;;;0.75;87.24
17230;BME280;8731;50.364;8.958;2023-01-30T00:43:21;100594.59;;;0.78;87.06
17230;BME280;8731;50.364;8.958;2023-01-30T00:48:03;100572.75;;;0.77;87.32
17230;BME280;8731;50.364;8.958;2023-01-30T00:52:25;100569.97;;;0.81;87.68
17230;BME280;8731;50.364;8.958;2023-01-30T00:56:48;100551.31;;;0.79;87.59
17230;BME280;8731;50.364;8.958;2023-01-30T01:01:10;100551.81;;;0.77;88.00
17230;BME280;8731;50.364;8.958;2023-01-30T01:05:33;100549.00;;;0.81;88.21
17230;BME280;8731;50.364;8.958;2023-01-30T01:09:56;100551.44;;;0.86;88.09
17230;BME280;8731;50.364;8.958;2023-01-30T01:14:18;100543.41;;;0.89;88.52
17230;BME280;8731;50.364;8.958;2023-01-30T01:18:40;100519.06;;;0.88;89.03
17230;BME280;8731;50.364;8.958;2023-01-30T01:23:04;100509.72;;;0.87;87.79
17230;BME280;8731;50.364;8.958;2023-01-30T01:27:27;100506.03;;;0.90;88.39
17230;BME280;8731;50.364;8.958;2023-01-30T01:31:50;100526.03;;;0.96;88.35
17230;BME280;8731;50.364;8.958;2023-01-30T01:36:12;100537.41;;;0.94;88.95
17230;BME280;8731;50.364;8.958;2023-01-30T01:40:37;100531.03;;;0.96;90.28
17230;BME280;8731;50.364;8.958;2023-01-30T01:45:18;100508.25;;;0.95;89.80
17230;BME280;8731;50.364;8.958;2023-01-30T01:49:42;100510.00;;;1.01;90.23
17230;BME280;8731;50.364;8.958;2023-01-30T01:54:07;100497.59;;;1.08;89.65
17230;BME280;8731;50.364;8.958;2023-01-30T01:58:38;100478.72;;;1.05;90.21
17230;BME280;8731;50.364;8.958;2023-01-30T02:03:09;100473.22;;;1.07;90.63
17230;BME280;8731;50.364;8.958;2023-01-30T02:07:43;100458.88;;;1.06;90.40
17230;BME280;8731;50.364;8.958;2023-01-30T02:12:07;100470.00;;;1.08;90.45
17230;BME280;8731;50.364;8.958;2023-01-30T02:16:34;100482.94;;;1.11;90.41
17230;BME280;8731;50.364;8.958;2023-01-30T02:21:18;100470.56;;;1.18;89.71
17230;BME280;8731;50.364;8.958;2023-01-30T02:26:18;100465.94;;;1.21;90.67
17230;BME280;8731;50.364;8.958;2023-01-30T02:31:13;100465.53;;;1.18;90.61
17230;BME280;8731;50.364;8.958;2023-01-30T02:35:50;100440.47;;;1.18;90.66
17230;BME280;8731;50.364;8.958;2023-01-30T02:40:35;100446.38;;;1.19;91.60
17230;BME280;8731;50.364;8.958;2023-01-30T02:45:09;100444.88;;;1.27;90.82
17230;BME280;8731;50.364;8.958;2023-01-30T02:49:41;100455.09;;;1.28;90.72
17230;BME280;8731;50.364;8.958;2023-01-30T02:54:10;100454.81;;;1.32;91.11
17230;BME280;8731;50.364;8.958;2023-01-30T02:58:36;100450.78;;;1.27;90.75
17230;BME280;8731;50.364;8.958;2023-01-30T03:03:14;100429.72;;;1.32;91.32
17230;BME280;8731;50.364;8.958;2023-01-30T03:08:01;100444.28;;;1.35;90.95
17230;BME280;8731;50.364;8.958;2023-01-30T03:12:39;100440.06;;;1.41;91.33
17230;BME280;8731;50.364;8.958;2023-01-30T03:17:09;100412.78;;;1.37;91.14
17230;BME280;8731;50.364;8.958;2023-01-30T03:21:39;100408.97;;;1.46;90.81
17230;BME280;8731;50.364;8.958;2023-01-30T03:26:08;100406.06;;;1.43;90.80
17230;BME280;8731;50.364;8.958;2023-01-30T03:30:37;100394.31;;;1.49;90.40
17230;BME280;8731;50.364;8.958;2023-01-30T03:35:03;100374.25;;;1.49;90.96
17230;BME280;8731;50.364;8.958;2023-01-30T03:39:26;100371.75;;;1.49;90.82
17230;BME280;8731;50.364;8.958;2023-01-30T03:43:49;100371.31;;;1.59;91.24
17230;BME280;8731;50.364;8.958;2023-01-30T03:48:12;100382.25;;;1.59;91.39
17230;BME280;8731;50.364;8.958;2023-01-30T03:52:35;100374.53;;;1.58;92.09
17230;BME280;8731;50.364;8.958;2023-01-30T03:57:01;100381.06;;;1.63;91.16
17230;BME280;8731;50.364;8.958;2023-01-30T04:01:25;100375.44;;;1.58;92.43
17230;BME280;8731;50.364;8.958;2023-01-30T04:05:47;100374.44;;;1.63;91.46
17230;BME280;8731;50.364;8.958;2023-01-30T04:10:10;100361.69;;;1.62;91.73
17230;BME280;8731;50.364;8.958;2023-01-30T04:14:35;100344.63;;;1.72;91.06
17230;BME280;8731;50.364;8.958;2023-01-30T04:19:16;100351.06;;;1.70;91.86
17230;BME280;8731;50.364;8.958;2023-01-30T04:23:39;100326.88;;;1.70;91.69
17230;BME280;8731;50.364;8.958;2023-01-30T04:28:01;100345.53;;;1.60;91.37
17230;BME280;8731;50.364;8.958;2023-01-30T04:32:29;100328.34;;;1.63;91.19
17230;BME280;8731;50.364;8.958;2023-01-30T04:36:54;100312.13;;;1.66;92.00
17230;BME280;8731;50.364;8.958;2023-01-30T04:41:16;100310.59;;;1.61;92.46
17230;BME280;8731;50.364;8.958;2023-01-30T04:45:41;100303.97;;;1.62;92.33
17230;BME280;8731;50.364;8.958;2023-01-30T04:50:05;100303.47;;;1.64;91.51
17230;BME280;8731;50.364;8.958;2023-01-30T04:54:30;100297.34;;;1.62;92.17
17230;BME280;8731;50.364;8.958;2023-01-30T04:58:54;100286.13;;;1.66;92.30
17230;BME280;8731;50.364;8.958;2023-01-30T05:03:17;100286.41;;;1.62;91.86
17230;BME280;8731;50.364;8.958;2023-01-30T05:07:39;100274.50;;;1.66;92.13
17230;BME280;8731;50.364;8.958;2023-01-30T05:12:03;100281.50;;;1.69;93.07
17230;BME280;8731;50.364;8.958;2023-01-30T05:16:26;100274.69;;;1.68;92.68
17230;BME280;8731;50.364;8.958;2023-01-30T05:20:49;100259.50;;;1.73;93.36
17230;BME280;8731;50.364;8.958;2023-01-30T05:25:12;100250.16;;;1.72;94.10
17230;BME280;8731;50.364;8.958;2023-01-30T05:29:35;100235.88;;;1.78;93.21
17230;BME280;8731;50.364;8.958;2023-01-30T05:33:57;100235.50;;;1.75;94.23
17230;BME280;8731;50.364;8.958;2023-01-30T05:38:21;100237.69;;;1.79;94.81
17230;BME280;8731;50.364;8.958;2023-01-30T05:42:44;100230.34;;;1.81;94.89
17230;BME280;8731;50.364;8.958;2023-01-30T05:47:07;100229.63;;;1.82;94.15
17230;BME280;8731;50.364;8.958;2023-01-30T05:51:30;100212.59;;;1.79;94.75
17230;BME280;8731;50.364;8.958;2023-01-30T05:55:54;100217.28;;;1.83;94.73
17230;BME280;8731;50.364;8.958;2023-01-30T06:00:17;100213.16;;;1.84;94.43
17230;BME280;8731;50.364;8.958;2023-01-30T06:04:41;100214.38;;;1.80;95.11
17230;BME280;8731;50.364;8.958;2023-01-30T06:09:04;100210.66;;;1.84;95.50
17230;BME280;8731;50.364;8.958;2023-01-30T06:13:26;100205.91;;;1.93;94.94
17230;BME280;8731;50.364;8.958;2023-01-30T06:17:48;100212.13;;;1.89;95.64
17230;BME280;8731;50.364;8.958;2023-01-30T06:22:12;100205.59;;;1.97;96.20
17230;BME280;8731;50.364;8.958;2023-01-30T06:26:34;100199.81;;;1.91;96.01
17230;BME280;8731;50.364;8.958;2023-01-30T06:30:56;100213.31;;;1.98;95.79
17230;BME280;8731;50.364;8.958;2023-01-30T06:35:19;100215.34;;;1.88;96.23
17230;BME280;8731;50.364;8.958;2023-01-30T06:39:42;100227.47;;;1.98;95.62
17230;BME280;8731;50.364;8.958;2023-01-30T06:44:05;100231.44;;;2.03;95.48
17230;BME280;8731;50.364;8.958;2023-01-30T06:48:28;100244.00;;;2.03;96.30
17230;BME280;8731;50.364;8.958;2023-01-30T06:52:51;100244.56;;;2.07;96.45
17230;BME280;8731;50.364;8.958;2023-01-30T06:57:16;100249.41;;;2.06;96.01
17230;BME280;8731;50.364;8.958;2023-01-30T07:01:38;100245.16;;;2.12;95.95
17230;BME280;8731;50.364;8.958;2023-01-30T07:06:01;100243.28;;;2.04;96.02
17230;BME280;8731;50.364;8.958;2023-01-30T07:10:23;100254.44;;;2.06;97.42
17230;BME280;8731;50.364;8.958;2023-01-30T07:14:47;100255.91;;;2.11;96.53
17230;BME280;8731;50.364;8.958;2023-01-30T07:19:09;100245.16;;;2.12;96.97
17230;BME280;8731;50.364;8.958;2023-01-30T07:23:32;100235.09;;;2.12;96.14
17230;BME280;8731;50.364;8.958;2023-01-30T07:27:56;100239.13;;;2.17;96.40
17230;BME280;8731;50.364;8.958;2023-01-30T07:32:21;100230.78;;;2.11;97.01
17230;BME280;8731;50.364;8.958;2023-01-30T07:36:44;100248.84;;;2.21;96.31
17230;BME280;8731;50.364;8.958;2023-01-30T07:41:06;100246.47;;;2.15;97.04
17230;BME280;8731;50.364;8.958;2023-01-30T07:45:30;100256.00;;;2.18;97.23
17230;BME280;8731;50.364;8.958;2023-01-30T07:49:57;100243.44;;;2.18;97.50
17230;BME280;8731;50.364;8.958;2023-01-30T07:54:20;100215.09;;;2.19;96.60
17230;BME280;8731;50.364;8.958;2023-01-30T07:58:42;100221.94;;;2.20;97.28
17230;BME280;8731;50.364;8.958;2023-01-30T08:03:04;100208.84;;;2.23;97.93
17230;BME280;8731;50.364;8.958;2023-01-30T08:07:28;100222.88;;;2.28;98.42
17230;BME280;8731;50.364;8.958;2023-01-30T08:11:50;100214.38;;;2.40;97.71
17230;BME280;8731;50.364;8.958;2023-01-30T08:16:12;100224.47;;;2.27;98.27
17230;BME280;8731;50.364;8.958;2023-01-30T08:20:35;100216.28;;;2.35;97.37
17230;BME280;8731;50.364;8.958;2023-01-30T08:24:59;100211.25;;;2.35;97.60
17230;BME280;8731;50.364;8.958;2023-01-30T08:29:23;100197.09;;;2.36;97.98
17230;BME280;8731;50.364;8.958;2023-01-30T08:33:46;100208.81;;;2.42;98.16
17230;BME280;8731;50.364;8.958;2023-01-30T08:38:09;100200.72;;;2.38;98.77
17230;BME280;8731;50.364;8.958;2023-01-30T08:42:32;100183.31;;;2.39;98.99
17230;BME280;8731;50.364;8.958;2023-01-30T08:46:55;100176.69;;;2.40;99.53
17230;BME280;8731;50.364;8.958;2023-01-30T08:51:17;100196.06;;;2.41;100.00
17230;BME280;8731;50.364;8.958;2023-01-30T08:55:39;100189.09;;;2.45;100.00
17230;BME280;8731;50.364;8.958;2023-01-30T09:00:03;100194.31;;;2.47;100.00
17230;BME280;8731;50.364;8.958;2023-01-30T09:04:28;100180.84;;;2.46;100.00
17230;BME280;8731;50.364;8.958;2023-01-30T09:08:50;100171.91;;;2.56;100.00
17230;BME280;8731;50.364;8.958;2023-01-30T09:13:13;100165.81;;;2.54;100.00
17230;BME280;8731;50.364;8.958;2023-01-30T09:17:37;100144.72;;;2.66;100.00
17230;BME280;8731;50.364;8.958;2023-01-30T09:22:00;100168.41;;;2.68;100.00
17230;BME280;8731;50.364;8.958;2023-01-30T09:26:22;100154.44;;;2.77;100.00
17230;BME280;8731;50.364;8.958;2023-01-30T09:30:44;100142.06;;;2.78;100.00
17230;BME280;8731;50.364;8.958;2023-01-30T09:35:08;100149.06;;;2.81;100.00
17230;BME280;8731;50.364;8.958;2023-01-30T09:39:31;100135.78;;;2.82;100.00
17230;BME280;8731;50.364;8.958;2023-01-30T09:44:09;100125.78;;;2.89;100.00
17230;BME280;8731;50.364;8.958;2023-01-30T09:48:53;100140.88;;;2.89;100.00
17230;BME280;8731;50.364;8.958;2023-01-30T09:53:28;100152.38;;;3.01;100.00
17230;BME280;8731;50.364;8.958;2023-01-30T09:57:58;100137.66;;;3.04;99.80
17230;BME280;8731;50.364;8.958;2023-01-30T10:02:30;100133.00;;;3.00;100.00
17230;BME280;8731;50.364;8.958;2023-01-30T10:07:09;100141.97;;;3.05;100.00
17230;BME280;8731;50.364;8.958;2023-01-30T10:11:53;100143.63;;;3.12;100.00
17230;BME280;8731;50.364;8.958;2023-01-30T10:16:27;100141.31;;;3.28;100.00
17230;BME280;8731;50.364;8.958;2023-01-30T10:21:03;100144.41;;;3.32;100.00
17230;BME280;8731;50.364;8.958;2023-01-30T10:25:33;100120.53;;;3.50;100.00
17230;BME280;8731;50.364;8.958;2023-01-30T10:30:05;100116.06;;;3.69;100.00
17230;BME280;8731;50.364;8.958;2023-01-30T10:34:36;100106.00;;;3.83;99.65
17230;BME280;8731;50.364;8.958;2023-01-30T10:39:03;100119.28;;;3.96;99.99
17230;BME280;8731;50.364;8.958;2023-01-30T10:43:40;100122.00;;;4.05;98.42
17230;BME280;8731;50.364;8.958;2023-01-30T10:48:28;100125.56;;;4.14;97.64
17230;BME280;8731;50.364;8.958;2023-01-30T10:53:15;100138.16;;;4.28;97.07
17230;BME280;8731;50.364;8.958;2023-01-30T10:57:53;100138.28;;;4.44;97.19
17230;BME280;8731;50.364;8.958;2023-01-30T11:02:24;100120.00;;;4.82;96.49
17230;BME280;8731;50.364;8.958;2023-01-30T11:06:54;100128.59;;;4.99;95.42
17230;BME280;8731;50.364;8.958;2023-01-30T11:11:25;100137.19;;;5.08;93.03
17230;BME280;8731;50.364;8.958;2023-01-30T11:15:51;100133.88;;;5.16;92.43
17230;BME280;8731;50.364;8.958;2023-01-30T11:20:19;100120.88;;;5.27;92.65
17230;BME280;8731;50.364;8.958;2023-01-30T11:24:45;100117.16;;;5.39;91.64
17230;BME280;8731;50.364;8.958;2023-01-30T11:29:16;100113.34;;;5.43;91.13
17230;BME280;8731;50.364;8.958;2023-01-30T11:33:59;100097.69;;;5.38;90.07
17230;BME280;8731;50.364;8.958;2023-01-30T11:38:24;100108.44;;;5.51;89.74
17230;BME280;8731;50.364;8.958;2023-01-30T11:42:51;100128.91;;;5.62;89.48
17230;BME280;8731;50.364;8.958;2023-01-30T11:47:21;100124.19;;;5.65;89.33
17230;BME280;8731;50.364;8.958;2023-01-30T11:51:47;100134.22;;;5.79;89.41
17230;BME280;8731;50.364;8.958;2023-01-30T11:56:16;100124.44;;;5.82;88.52
17230;BME280;8731;50.364;8.958;2023-01-30T12:00:46;100120.41;;;5.91;88.25
17230;BME280;8731;50.364;8.958;2023-01-30T12:05:20;100129.81;;;5.92;87.45
17230;BME280;8731;50.364;8.958;2023-01-30T12:09:46;100123.63;;;5.97;87.79
17230;BME280;8731;50.364;8.958;2023-01-30T12:14:20;100104.09;;;6.03;87.49
17230;BME280;8731;50.364;8.958;2023-01-30T12:19:01;100111.59;;;6.10;86.60
17230;BME280;8731;50.364;8.958;2023-01-30T12:23:39;100104.09;;;6.03;86.42
17230;BME280;8731;50.364;8.958;2023-01-30T12:28:11;100108.66;;;6.14;85.18
17230;BME280;8731;50.364;8.958;2023-01-30T12:32:39;100106.72;;;6.28;86.25
17230;BME280;8731;50.364;8.958;2023-01-30T12:37:14;100102.72;;;6.30;85.14
17230;BME280;8731;50.364;8.958;2023-01-30T12:41:59;100098.25;;;6.27;85.39
17230;BME280;8731;50.364;8.958;2023-01-30T12:46:42;100117.53;;;6.50;85.13
17230;BME280;8731;50.364;8.958;2023-01-30T12:51:28;100114.75;;;6.55;85.19
17230;BME280;8731;50.364;8.958;2023-01-30T12:56:23;100118.03;;;6.70;84.91
17230;BME280;8731;50.364;8.958;2023-01-30T13:01:10;100120.19;;;6.83;84.11
17230;BME280;8731;50.364;8.958;2023-01-30T13:05:50;100117.84;;;6.84;83.97
17230;BME280;8731;50.364;8.958;2023-01-30T13:10:30;100122.34;;;6.87;83.45
17230;BME280;8731;50.364;8.958;2023-01-30T13:15:02;100120.78;;;6.96;83.36
17230;BME280;8731;50.364;8.958;2023-01-30T13:19:41;100131.47;;;6.93;82.84
17230;BME280;8731;50.364;8.958;2023-01-30T13:24:16;100131.97;;;6.98;82.68
17230;BME280;8731;50.364;8.958;2023-01-30T13:28:44;100119.41;;;6.91;82.18
17230;BME280;8731;50.364;8.958;2023-01-30T13:33:12;100117.78;;;6.91;82.07
17230;BME280;8731;50.364;8.958;2023-01-30T13:37:41;100113.50;;;6.99;82.06
17230;BME280;8731;50.364;8.958;2023-01-30T13:42:12;100106.13;;;7.09;81.74
17230;BME280;8731;50.364;8.958;2023-01-30T13:46:41;100106.63;;;7.14;81.29
17230;BME280;8731;50.364;8.958;2023-01-30T13:51:15;100109.06;;;7.21;81.56
17230;BME280;8731;50.364;8.958;2023-01-30T13:56:17;100120.41;;;7.24;81.08
17230;BME280;8731;50.364;8.958;2023-01-30T14:00:52;100114.91;;;7.28;80.09
17230;BME280;8731;50.364;8.958;2023-01-30T14:10:22;100124.06;;;7.35;79.34
17230;BME280;8731;50.364;8.958;2023-01-30T14:14:59;100130.63;;;7.57;78.98
17230;BME280;8731;50.364;8.958;2023-01-30T14:19:34;100126.59;;;7.59;76.65
17230;BME280;8731;50.364;8.958;2023-01-30T14:24:03;100135.41;;;7.63;75.47
17230;BME280;8731;50.364;8.958;2023-01-30T14:28:48;100154.03;;;7.63;73.97
17230;BME280;8731;50.364;8.958;2023-01-30T14:33:32;100146.19;;;7.78;74.78
17230;BME280;8731;50.364;8.958;2023-01-30T14:38:11;100156.91;;;7.75;74.10
17230;BME280;8731;50.364;8.958;2023-01-30T14:42:34;100178.78;;;7.66;72.80
17230;BME280;8731;50.364;8.958;2023-01-30T14:46:58;100190.56;;;7.65;72.46
17230;BME280;8731;50.364;8.958;2023-01-30T14:51:22;100190.41;;;7.64;72.93
17230;BME280;8731;50.364;8.958;2023-01-30T14:55:58;100214.25;;;7.66;73.64
17230;BME280;8731;50.364;8.958;2023-01-30T15:00:25;100215.06;;;7.74;74.79
17230;BME280;8731;50.364;8.958;2023-01-30T15:05:01;100222.38;;;7.79;74.49
17230;BME280;8731;50.364;8.958;2023-01-30T15:09:27;100221.44;;;7.70;73.90
17230;BME280;8731;50.364;8.958;2023-01-30T15:13:59;100231.69;;;7.63;73.31
17230;BME280;8731;50.364;8.958;2023-01-30T15:18:40;100230.81;;;7.47;72.14
17230;BME280;8731;50.364;8.958;2023-01-30T15:23:47;100234.88;;;7.53;72.75
17230;BME280;8731;50.364;8.958;2023-01-30T15:28:31;100248.44;;;7.54;72.59
17230;BME280;8731;50.364;8.958;2023-01-30T15:33:13;100258.03;;;7.41;72.54
17230;BME280;8731;50.364;8.958;2023-01-30T15:37:39;100274.94;;;7.17;71.55
17230;BME280;8731;50.364;8.958;2023-01-30T15:42:13;100285.72;;;7.23;72.37
17230;BME280;8731;50.364;8.958;2023-01-30T15:46:44;100287.81;;;6.96;72.07
17230;BME280;8731;50.364;8.958;2023-01-30T15:51:15;100294.03;;;7.06;73.09
17230;BME280;8731;50.364;8.958;2023-01-30T15:55:41;100297.84;;;7.03;72.64
17230;BME280;8731;50.364;8.958;2023-01-30T16:00:13;100307.44;;;6.83;72.52
17230;BME280;8731;50.364;8.958;2023-01-30T16:04:44;100301.41;;;6.73;73.21
17230;BME280;8731;50.364;8.958;2023-01-30T16:09:18;100317.56;;;6.83;73.81
17230;BME280;8731;50.364;8.958;2023-01-30T16:13:44;100319.91;;;6.65;73.59
17230;BME280;8731;50.364;8.958;2023-01-30T16:18:20;100337.81;;;6.60;73.97
17230;BME280;8731;50.364;8.958;2023-01-30T16:22:47;100341.66;;;6.56;74.21
17230;BME280;8731;50.364;8.958;2023-01-30T16:27:15;100360.00;;;6.69;74.30
17230;BME280;8731;50.364;8.958;2023-01-30T16:31:44;100362.53;;;6.69;74.77
17230;BME280;8731;50.364;8.958;2023-01-30T16:36:30;100364.00;;;6.60;74.80
17230;BME280;8731;50.364;8.958;2023-01-30T16:40:58;100370.94;;;6.54;75.00
17230;BME280;8731;50.364;8.958;2023-01-30T16:51:11;100385.72;;;6.28;75.41
17230;BME280;8731;50.364;8.958;2023-01-30T16:55:41;100398.94;;;6.26;74.89
17230;BME280;8731;50.364;8.958;2023-01-30T17:00:20;100401.66;;;6.20;75.33
17230;BME280;8731;50.364;8.958;2023-01-30T17:04:44;100416.00;;;6.05;75.11
17230;BME280;8731;50.364;8.958;2023-01-30T17:09:31;100435.13;;;6.03;75.72
17230;BME280;8731;50.364;8.958;2023-01-30T17:14:17;100434.06;;;6.01;76.09
17230;BME280;8731;50.364;8.958;2023-01-30T17:18:41;100450.00;;;5.93;76.30
17230;BME280;8731;50.364;8.958;2023-01-30T17:23:08;100463.13;;;5.91;76.02
17230;BME280;8731;50.364;8.958;2023-01-30T17:27:33;100470.94;;;5.92;76.30
17230;BME280;8731;50.364;8.958;2023-01-30T17:31:57;100477.00;;;5.87;76.34
17230;BME280;8731;50.364;8.958;2023-01-30T17:36:23;100491.28;;;5.86;76.09
17230;BME280;8731;50.364;8.958;2023-01-30T17:40:48;100488.94;;;5.88;76.87
17230;BME280;8731;50.364;8.958;2023-01-30T17:45:10;100499.75;;;5.87;76.84
17230;BME280;8731;50.364;8.958;2023-01-30T17:49:34;100510.63;;;5.93;76.77
17230;BME280;8731;50.364;8.958;2023-01-30T17:53:56;100517.66;;;5.96;77.13
17230;BME280;8731;50.364;8.958;2023-01-30T17:58:19;100523.97;;;5.99;77.18
17230;BME280;8731;50.364;8.958;2023-01-30T18:02:42;100522.16;;;5.98;77.73
17230;BME280;8731;50.364;8.958;2023-01-30T18:07:09;100522.69;;;6.03;78.82
17230;BME280;8731;50.364;8.958;2023-01-30T18:11:36;100532.59;;;5.87;79.11
17230;BME280;8731;50.364;8.958;2023-01-30T18:15:58;100531.56;;;5.92;78.60
17230;BME280;8731;50.364;8.958;2023-01-30T18:20:22;100527.72;;;5.89;79.34
17230;BME280;8731;50.364;8.958;2023-01-30T18:24:46;100547.81;;;5.94;79.02
17230;BME280;8731;50.364;8.958;2023-01-30T18:29:08;100551.75;;;5.99;79.34
17230;BME280;8731;50.364;8.958;2023-01-30T18:33:31;100538.94;;;5.98;78.90
17230;BME280;8731;50.364;8.958;2023-01-30T18:37:53;100557.75;;;5.93;79.67
17230;BME280;8731;50.364;8.958;2023-01-30T18:42:17;100563.69;;;5.93;79.36
17230;BME280;8731;50.364;8.958;2023-01-30T18:46:39;100570.69;;;5.89;79.38
17230;BME280;8731;50.364;8.958;2023-01-30T18:51:03;100560.41;;;5.87;79.56
17230;BME280;8731;50.364;8.958;2023-01-30T18:55:27;100567.78;;;5.85;79.41
17230;BME280;8731;50.364;8.958;2023-01-30T18:59:50;100580.59;;;5.87;78.61
17230;BME280;8731;50.364;8.958;2023-01-30T19:04:13;100591.25;;;5.84;79.22
17230;BME280;8731;50.364;8.958;2023-01-30T19:08:35;100598.31;;;5.80;79.04
17230;BME280;8731;50.364;8.958;2023-01-30T19:12:57;100606.59;;;5.79;79.63
17230;BME280;8731;50.364;8.958;2023-01-30T19:17:38;100600.13;;;5.74;79.04
17230;BME280;8731;50.364;8.958;2023-01-30T19:22:00;100616.34;;;5.76;79.06
17230;BME280;8731;50.364;8.958;2023-01-30T19:26:23;100614.00;;;5.63;79.61
17230;BME280;8731;50.364;8.958;2023-01-30T19:30:48;100622.47;;;5.64;79.33
17230;BME280;8731;50.364;8.958;2023-01-30T19:35:12;100627.88;;;5.67;79.65
17230;BME280;8731;50.364;8.958;2023-01-30T19:39:34;100630.63;;;5.68;79.47
17230;BME280;8731;50.364;8.958;2023-01-30T19:43:58;100636.38;;;5.74;79.78
17230;BME280;8731;50.364;8.958;2023-01-30T19:48:22;100651.53;;;5.74;79.76
17230;BME280;8731;50.364;8.958;2023-01-30T19:52:45;100650.28;;;5.78;79.80
17230;BME280;8731;50.364;8.958;2023-01-30T19:57:08;100652.44;;;5.75;79.88
17230;BME280;8731;50.364;8.958;2023-01-30T20:01:32;100662.56;;;5.75;79.43
17230;BME280;8731;50.364;8.958;2023-01-30T20:06:06;100669.19;;;5.67;79.92
17230;BME280;8731;50.364;8.958;2023-01-30T20:10:31;100680.91;;;5.67;79.77
17230;BME280;8731;50.364;8.958;2023-01-30T20:14:54;100685.66;;;5.71;80.33
17230;BME280;8731;50.364;8.958;2023-01-30T20:19:16;100691.75;;;5.66;80.04
17230;BME280;8731;50.364;8.958;2023-01-30T20:23:38;100693.41;;;5.72;80.26
17230;BME280;8731;50.364;8.958;2023-01-30T20:28:03;100686.69;;;5.66;79.82
17230;BME280;8731;50.364;8.958;2023-01-30T20:32:25;100684.88;;;5.65;80.58
17230;BME280;8731;50.364;8.958;2023-01-30T20:36:48;100693.19;;;5.64;80.74
17230;BME280;8731;50.364;8.958;2023-01-30T20:41:12;100699.16;;;5.64;80.06
17230;BME280;8731;50.364;8.958;2023-01-30T20:45:36;100714.84;;;5.62;80.95
17230;BME280;8731;50.364;8.958;2023-01-30T20:49:59;100704.72;;;5.62;80.53
17230;BME280;8731;50.364;8.958;2023-01-30T20:54:21;100717.72;;;5.65;80.80
17230;BME280;8731;50.364;8.958;2023-01-30T20:58:44;100720.97;;;5.64;80.74
17230;BME280;8731;50.364;8.958;2023-01-30T21:03:07;100734.50;;;5.64;80.39
17230;BME280;8731;50.364;8.958;2023-01-30T21:07:30;100741.91;;;5.63;80.98
17230;BME280;8731;50.364;8.958;2023-01-30T21:11:53;100741.19;;;5.64;80.70
17230;BME280;8731;50.364;8.958;2023-01-30T21:16:17;100757.06;;;5.63;81.19
17230;BME280;8731;50.364;8.958;2023-01-30T21:20:48;100754.69;;;5.57;81.24
17230;BME280;8731;50.364;8.958;2023-01-30T21:25:10;100766.25;;;5.55;80.88
17230;BME280;8731;50.364;8.958;2023-01-30T21:29:32;100765.31;;;5.47;80.71
17230;BME280;8731;50.364;8.958;2023-01-30T21:33:56;100771.09;;;5.46;81.66
17230;BME280;8731;50.364;8.958;2023-01-30T21:38:20;100774.88;;;5.50;81.61
17230;BME280;8731;50.364;8.958;2023-01-30T21:43:00;100780.84;;;5.50;81.09
17230;BME280;8731;50.364;8.958;2023-01-30T21:47:39;100795.66;;;5.54;81.42
17230;BME280;8731;50.364;8.958;2023-01-30T21:52:02;100792.75;;;5.51;81.48
17230;BME280;8731;50.364;8.958;2023-01-30T21:56:26;100799.59;;;5.52;81.65
17230;BME280;8731;50.364;8.958;2023-01-30T22:00:48;100810.78;;;5.47;82.04
17230;BME280;8731;50.364;8.958;2023-01-30T22:05:10;100810.59;;;5.53;81.63
17230;BME280;8731;50.364;8.958;2023-01-30T22:09:32;100814.50;;;5.44;81.97
17230;BME280;8731;50.364;8.958;2023-01-30T22:13:56;100824.78;;;5.38;82.39
17230;BME280;8731;50.364;8.958;2023-01-30T22:18:18;100823.34;;;5.40;83.18
17230;BME280;8731;50.364;8.958;2023-01-30T22:22:41;100839.63;;;5.49;82.27
17230;BME280;8731;50.364;8.958;2023-01-30T22:27:03;100841.06;;;5.47;82.12
17230;BME280;8731;50.364;8.958;2023-01-30T22:31:29;100840.16;;;5.47;82.75
17230;BME280;8731;50.364;8.958;2023-01-30T22:35:53;100844.69;;;5.49;82.56
17230;BME280;8731;50.364;8.958;2023-01-30T22:40:16;100839.75;;;5.44;82.92
17230;BME280;8731;50.364;8.958;2023-01-30T22:44:38;100843.31;;;5.32;83.50
17230;BME280;8731;50.364;8.958;2023-01-30T22:49:04;100839.41;;;5.41;83.09
17230;BME280;8731;50.364;8.958;2023-01-30T22:53:30;100837.78;;;5.41;82.88
17230;BME280;8731;50.364;8.958;2023-01-30T22:57:53;100836.88;;;5.41;82.52
17230;BME280;8731;50.364;8.958;2023-01-30T23:02:15;100838.13;;;5.37;82.76
17230;BME280;8731;50.364;8.958;2023-01-30T23:06:40;100840.69;;;5.44;81.82
17230;BME280;8731;50.364;8.958;2023-01-30T23:11:06;100842.69;;;5.47;81.78
17230;BME280;8731;50.364;8.958;2023-01-30T23:15:31;100854.41;;;5.46;82.30
17230;BME280;8731;50.364;8.958;2023-01-30T23:19:56;100848.84;;;5.49;81.56
17230;BME280;8731;50.364;8.958;2023-01-30T23:24:20;100849.22;;;5.52;82.60
17230;BME280;8731;50.364;8.958;2023-01-30T23:28:42;100853.09;;;5.43;82.78
17230;BME280;8731;50.364;8.958;2023-01-30T23:33:05;100851.31;;;5.42;82.59
17230;BME280;8731;50.364;8.958;2023-01-30T23:37:27;100843.59;;;5.47;82.96
17230;BME280;8731;50.364;8.958;2023-01-30T23:42:06;100850.81;;;5.44;82.68
17230;BME280;8731;50.364;8.958;2023-01-30T23:46:30;100843.06;;;5.50;82.83
17230;BME280;8731;50.364;8.958;2023-01-30T23:50:54;100844.63;;;5.42;83.04
17230;BME280;8731;50.364;8.958;2023-01-30T23:55:16;100849.66;;;5.35;83.62
17230;BME280;8731;50.364;8.958;2023-01-30T23:59:40;100859.94;;;5.37;83.28
